NCAR-RAP Real-Time Weather Data

Output produced by METARs form (26 October 2014  01:47 UTC)
found at http://weather.rap.ucar.edu/surface/
 
Conditions at: KLOU observed 26 October 2014  00:53 UTC
Temperature: 18.9°C (66°F)
Dewpoint: 13.3°C (56°F) [RH = 70%]
Pressure (altimeter): 29.97 inches Hg (1015.0 mb)
[Sea-level pressure: 1014.7 mb]
Winds: from the SW (230 degrees) at 5 MPH (4 knots; 2.1 m/s)
Visibility: 10 or more miles (16+ km)
Ceiling: at least 12,000 feet AGL
Clouds: sky clear below 12,000 feet AGL
Present Weather: no significant weather observed at this time
KLOU 260053Z 23004KT 10SM CLR 19/13 A2997 RMK AO2 SLP147 T01890133